sensor_id;sensor_type;location;lat;lon;timestamp;P1;durP1;ratioP1;P2;durP2;ratioP2
10303;SDS011;5197;48.152;8.590;2022-11-15T00:00:55;4.20;;;2.67;;
10303;SDS011;5197;48.152;8.590;2022-11-15T00:03:24;4.40;;;2.37;;
10303;SDS011;5197;48.152;8.590;2022-11-15T00:05:53;5.90;;;2.60;;
10303;SDS011;5197;48.152;8.590;2022-11-15T00:08:20;2.83;;;2.57;;
10303;SDS011;5197;48.152;8.590;2022-11-15T00:10:54;3.43;;;2.80;;
10303;SDS011;5197;48.152;8.590;2022-11-15T00:13:25;2.87;;;2.60;;
10303;SDS011;5197;48.152;8.590;2022-11-15T00:15:53;2.83;;;2.63;;
10303;SDS011;5197;48.152;8.590;2022-11-15T00:18:24;3.40;;;3.10;;
10303;SDS011;5197;48.152;8.590;2022-11-15T00:20:52;3.43;;;2.90;;
10303;SDS011;5197;48.152;8.590;2022-11-15T00:23:19;4.07;;;3.10;;
10303;SDS011;5197;48.152;8.590;2022-11-15T00:25:46;3.33;;;2.87;;
10303;SDS011;5197;48.152;8.590;2022-11-15T00:28:13;4.93;;;2.93;;
10303;SDS011;5197;48.152;8.590;2022-11-15T00:30:40;3.43;;;3.13;;
10303;SDS011;5197;48.152;8.590;2022-11-15T00:33:08;4.63;;;2.60;;
10303;SDS011;5197;48.152;8.590;2022-11-15T00:35:35;3.93;;;3.60;;
10303;SDS011;5197;48.152;8.590;2022-11-15T00:38:02;4.50;;;3.37;;
10303;SDS011;5197;48.152;8.590;2022-11-15T00:40:29;3.70;;;3.40;;
10303;SDS011;5197;48.152;8.590;2022-11-15T00:42:57;3.03;;;2.77;;
10303;SDS011;5197;48.152;8.590;2022-11-15T00:45:24;4.10;;;3.17;;
10303;SDS011;5197;48.152;8.590;2022-11-15T00:47:51;4.30;;;3.30;;
10303;SDS011;5197;48.152;8.590;2022-11-15T00:50:18;3.83;;;3.13;;
10303;SDS011;5197;48.152;8.590;2022-11-15T00:52:45;5.67;;;3.37;;
10303;SDS011;5197;48.152;8.590;2022-11-15T00:55:13;5.70;;;3.33;;
10303;SDS011;5197;48.152;8.590;2022-11-15T00:57:41;8.10;;;3.40;;
10303;SDS011;5197;48.152;8.590;2022-11-15T01:00:08;6.43;;;3.70;;
10303;SDS011;5197;48.152;8.590;2022-11-15T01:02:35;3.87;;;3.57;;
10303;SDS011;5197;48.152;8.590;2022-11-15T01:05:02;3.53;;;3.23;;
10303;SDS011;5197;48.152;8.590;2022-11-15T01:07:30;5.43;;;3.53;;
10303;SDS011;5197;48.152;8.590;2022-11-15T01:09:57;5.77;;;4.00;;
10303;SDS011;5197;48.152;8.590;2022-11-15T01:12:24;4.50;;;3.40;;
10303;SDS011;5197;48.152;8.590;2022-11-15T01:14:51;3.93;;;3.53;;
10303;SDS011;5197;48.152;8.590;2022-11-15T01:17:18;4.23;;;3.83;;
10303;SDS011;5197;48.152;8.590;2022-11-15T01:19:45;3.83;;;3.33;;
10303;SDS011;5197;48.152;8.590;2022-11-15T01:22:12;5.37;;;3.97;;
10303;SDS011;5197;48.152;8.590;2022-11-15T01:24:39;5.40;;;3.30;;
10303;SDS011;5197;48.152;8.590;2022-11-15T01:27:06;3.93;;;3.53;;
10303;SDS011;5197;48.152;8.590;2022-11-15T01:29:33;3.87;;;3.47;;
10303;SDS011;5197;48.152;8.590;2022-11-15T01:32:00;3.97;;;3.50;;
10303;SDS011;5197;48.152;8.590;2022-11-15T01:34:27;3.97;;;3.60;;
10303;SDS011;5197;48.152;8.590;2022-11-15T01:36:54;6.27;;;3.57;;
10303;SDS011;5197;48.152;8.590;2022-11-15T01:39:21;3.90;;;3.60;;
10303;SDS011;5197;48.152;8.590;2022-11-15T01:41:48;6.87;;;4.03;;
10303;SDS011;5197;48.152;8.590;2022-11-15T01:46:58;6.17;;;4.00;;
10303;SDS011;5197;48.152;8.590;2022-11-15T01:49:27;4.00;;;3.63;;
10303;SDS011;5197;48.152;8.590;2022-11-15T01:51:56;4.20;;;3.80;;
10303;SDS011;5197;48.152;8.590;2022-11-15T01:54:24;3.97;;;3.40;;
10303;SDS011;5197;48.152;8.590;2022-11-15T01:56:53;3.83;;;3.40;;
10303;SDS011;5197;48.152;8.590;2022-11-15T01:59:25;4.17;;;3.63;;
10303;SDS011;5197;48.152;8.590;2022-11-15T02:01:53;6.23;;;4.30;;
10303;SDS011;5197;48.152;8.590;2022-11-15T02:04:27;4.30;;;3.90;;
10303;SDS011;5197;48.152;8.590;2022-11-15T02:06:55;4.10;;;3.70;;
10303;SDS011;5197;48.152;8.590;2022-11-15T02:09:22;3.87;;;3.57;;
10303;SDS011;5197;48.152;8.590;2022-11-15T02:11:49;3.70;;;3.40;;
10303;SDS011;5197;48.152;8.590;2022-11-15T02:14:19;6.20;;;4.00;;
10303;SDS011;5197;48.152;8.590;2022-11-15T02:30:42;3.53;;;3.23;;
10303;SDS011;5197;48.152;8.590;2022-11-15T02:33:18;5.27;;;4.10;;
10303;SDS011;5197;48.152;8.590;2022-11-15T02:41:15;4.17;;;3.73;;
10303;SDS011;5197;48.152;8.590;2022-11-15T02:43:47;4.10;;;3.70;;
10303;SDS011;5197;48.152;8.590;2022-11-15T02:46:38;4.90;;;3.43;;
10303;SDS011;5197;48.152;8.590;2022-11-15T02:49:40;3.97;;;3.63;;
10303;SDS011;5197;48.152;8.590;2022-11-15T02:52:16;7.47;;;4.03;;
10303;SDS011;5197;48.152;8.590;2022-11-15T02:54:57;3.67;;;3.37;;
10303;SDS011;5197;48.152;8.590;2022-11-15T03:00:21;3.50;;;3.20;;
10303;SDS011;5197;48.152;8.590;2022-11-15T03:11:11;5.93;;;3.50;;
10303;SDS011;5197;48.152;8.590;2022-11-15T03:16:38;4.90;;;2.93;;
10303;SDS011;5197;48.152;8.590;2022-11-15T03:19:28;2.90;;;2.70;;
10303;SDS011;5197;48.152;8.590;2022-11-15T03:22:17;5.80;;;2.90;;
10303;SDS011;5197;48.152;8.590;2022-11-15T03:24:47;3.37;;;2.67;;
10303;SDS011;5197;48.152;8.590;2022-11-15T03:27:20;3.20;;;2.90;;
10303;SDS011;5197;48.152;8.590;2022-11-15T03:29:54;7.87;;;3.10;;
10303;SDS011;5197;48.152;8.590;2022-11-15T03:32:26;3.27;;;2.97;;
10303;SDS011;5197;48.152;8.590;2022-11-15T03:35:01;3.37;;;3.10;;
10303;SDS011;5197;48.152;8.590;2022-11-15T03:37:34;2.97;;;2.70;;
10303;SDS011;5197;48.152;8.590;2022-11-15T03:40:06;3.23;;;2.60;;
10303;SDS011;5197;48.152;8.590;2022-11-15T03:42:36;4.63;;;2.90;;
10303;SDS011;5197;48.152;8.590;2022-11-15T03:45:43;3.57;;;3.27;;
10303;SDS011;5197;48.152;8.590;2022-11-15T03:48:26;3.47;;;3.10;;
10303;SDS011;5197;48.152;8.590;2022-11-15T03:50:56;5.87;;;3.00;;
10303;SDS011;5197;48.152;8.590;2022-11-15T03:53:23;3.93;;;3.20;;
10303;SDS011;5197;48.152;8.590;2022-11-15T03:55:50;8.13;;;3.13;;
10303;SDS011;5197;48.152;8.590;2022-11-15T03:58:18;3.20;;;2.83;;
10303;SDS011;5197;48.152;8.590;2022-11-15T04:00:45;3.33;;;2.80;;
10303;SDS011;5197;48.152;8.590;2022-11-15T04:03:12;3.30;;;3.00;;
10303;SDS011;5197;48.152;8.590;2022-11-15T04:05:39;3.10;;;2.80;;
10303;SDS011;5197;48.152;8.590;2022-11-15T04:08:05;4.60;;;2.67;;
10303;SDS011;5197;48.152;8.590;2022-11-15T04:10:32;3.07;;;2.77;;
10303;SDS011;5197;48.152;8.590;2022-11-15T04:13:01;3.53;;;2.67;;
10303;SDS011;5197;48.152;8.590;2022-11-15T04:15:29;3.70;;;2.90;;
10303;SDS011;5197;48.152;8.590;2022-11-15T04:17:56;4.40;;;2.70;;
10303;SDS011;5197;48.152;8.590;2022-11-15T04:20:25;3.00;;;2.70;;
10303;SDS011;5197;48.152;8.590;2022-11-15T04:23:14;3.37;;;3.07;;
10303;SDS011;5197;48.152;8.590;2022-11-15T04:26:01;2.80;;;2.60;;
10303;SDS011;5197;48.152;8.590;2022-11-15T04:28:31;6.13;;;3.50;;
10303;SDS011;5197;48.152;8.590;2022-11-15T04:30:58;4.43;;;2.80;;
10303;SDS011;5197;48.152;8.590;2022-11-15T04:33:25;4.80;;;3.03;;
10303;SDS011;5197;48.152;8.590;2022-11-15T04:35:52;4.07;;;2.90;;
10303;SDS011;5197;48.152;8.590;2022-11-15T04:38:37;3.80;;;2.60;;
10303;SDS011;5197;48.152;8.590;2022-11-15T04:41:04;2.93;;;2.50;;
10303;SDS011;5197;48.152;8.590;2022-11-15T04:43:31;2.87;;;2.67;;
10303;SDS011;5197;48.152;8.590;2022-11-15T04:45:58;4.20;;;3.10;;
10303;SDS011;5197;48.152;8.590;2022-11-15T04:48:25;4.83;;;2.83;;
10303;SDS011;5197;48.152;8.590;2022-11-15T04:50:52;3.40;;;2.97;;
10303;SDS011;5197;48.152;8.590;2022-11-15T04:53:19;3.50;;;3.10;;
10303;SDS011;5197;48.152;8.590;2022-11-15T04:55:46;4.67;;;2.97;;
10303;SDS011;5197;48.152;8.590;2022-11-15T04:58:13;3.53;;;2.97;;
10303;SDS011;5197;48.152;8.590;2022-11-15T05:00:40;3.20;;;3.00;;
10303;SDS011;5197;48.152;8.590;2022-11-15T05:03:08;5.13;;;3.20;;
10303;SDS011;5197;48.152;8.590;2022-11-15T05:05:54;4.17;;;2.90;;
10303;SDS011;5197;48.152;8.590;2022-11-15T05:08:21;2.93;;;2.70;;
10303;SDS011;5197;48.152;8.590;2022-11-15T05:10:48;3.40;;;2.60;;
10303;SDS011;5197;48.152;8.590;2022-11-15T05:13:15;3.00;;;2.73;;
10303;SDS011;5197;48.152;8.590;2022-11-15T05:15:43;3.83;;;2.47;;
10303;SDS011;5197;48.152;8.590;2022-11-15T05:18:10;4.23;;;2.80;;
10303;SDS011;5197;48.152;8.590;2022-11-15T05:20:38;3.70;;;3.40;;
10303;SDS011;5197;48.152;8.590;2022-11-15T05:23:05;3.47;;;3.17;;
10303;SDS011;5197;48.152;8.590;2022-11-15T05:25:32;3.27;;;2.97;;
10303;SDS011;5197;48.152;8.590;2022-11-15T05:27:59;2.90;;;2.70;;
10303;SDS011;5197;48.152;8.590;2022-11-15T05:30:26;4.83;;;2.97;;
10303;SDS011;5197;48.152;8.590;2022-11-15T05:32:53;5.27;;;3.00;;
10303;SDS011;5197;48.152;8.590;2022-11-15T05:35:30;3.17;;;2.67;;
10303;SDS011;5197;48.152;8.590;2022-11-15T05:38:06;2.90;;;2.70;;
10303;SDS011;5197;48.152;8.590;2022-11-15T05:40:33;5.50;;;2.70;;
10303;SDS011;5197;48.152;8.590;2022-11-15T05:43:01;3.07;;;2.87;;
10303;SDS011;5197;48.152;8.590;2022-11-15T05:45:31;2.80;;;2.60;;
10303;SDS011;5197;48.152;8.590;2022-11-15T05:48:00;5.10;;;3.53;;
10303;SDS011;5197;48.152;8.590;2022-11-15T05:50:33;3.10;;;2.80;;
10303;SDS011;5197;48.152;8.590;2022-11-15T05:53:02;2.60;;;2.40;;
10303;SDS011;5197;48.152;8.590;2022-11-15T05:55:30;2.90;;;2.47;;
10303;SDS011;5197;48.152;8.590;2022-11-15T05:57:58;11.63;;;4.53;;
10303;SDS011;5197;48.152;8.590;2022-11-15T06:00:26;8.10;;;5.27;;
10303;SDS011;5197;48.152;8.590;2022-11-15T06:02:54;5.50;;;4.83;;
10303;SDS011;5197;48.152;8.590;2022-11-15T06:05:21;6.03;;;4.20;;
10303;SDS011;5197;48.152;8.590;2022-11-15T06:07:48;4.97;;;3.77;;
10303;SDS011;5197;48.152;8.590;2022-11-15T06:10:15;4.87;;;4.00;;
10303;SDS011;5197;48.152;8.590;2022-11-15T06:12:42;5.37;;;3.83;;
10303;SDS011;5197;48.152;8.590;2022-11-15T06:15:09;11.67;;;5.83;;
10303;SDS011;5197;48.152;8.590;2022-11-15T06:17:36;12.90;;;8.67;;
10303;SDS011;5197;48.152;8.590;2022-11-15T06:20:03;13.27;;;8.00;;
10303;SDS011;5197;48.152;8.590;2022-11-15T06:22:30;7.20;;;3.50;;
10303;SDS011;5197;48.152;8.590;2022-11-15T06:24:57;2.80;;;2.60;;
10303;SDS011;5197;48.152;8.590;2022-11-15T06:27:31;3.17;;;2.77;;
10303;SDS011;5197;48.152;8.590;2022-11-15T06:29:58;4.47;;;3.37;;
10303;SDS011;5197;48.152;8.590;2022-11-15T06:32:25;4.83;;;3.07;;
10303;SDS011;5197;48.152;8.590;2022-11-15T06:34:52;5.43;;;2.97;;
10303;SDS011;5197;48.152;8.590;2022-11-15T06:37:19;4.53;;;3.10;;
10303;SDS011;5197;48.152;8.590;2022-11-15T06:39:46;4.80;;;4.07;;
10303;SDS011;5197;48.152;8.590;2022-11-15T06:42:13;8.13;;;4.37;;
10303;SDS011;5197;48.152;8.590;2022-11-15T06:44:40;7.20;;;5.47;;
10303;SDS011;5197;48.152;8.590;2022-11-15T06:47:07;5.23;;;4.73;;
10303;SDS011;5197;48.152;8.590;2022-11-15T06:49:34;6.10;;;4.53;;
10303;SDS011;5197;48.152;8.590;2022-11-15T06:52:01;3.60;;;3.30;;
10303;SDS011;5197;48.152;8.590;2022-11-15T06:54:29;5.50;;;4.10;;
10303;SDS011;5197;48.152;8.590;2022-11-15T06:56:56;5.53;;;4.10;;
10303;SDS011;5197;48.152;8.590;2022-11-15T06:59:26;4.07;;;3.67;;
10303;SDS011;5197;48.152;8.590;2022-11-15T07:01:53;6.83;;;4.80;;
10303;SDS011;5197;48.152;8.590;2022-11-15T07:04:20;5.70;;;4.30;;
10303;SDS011;5197;48.152;8.590;2022-11-15T07:06:47;9.87;;;5.63;;
10303;SDS011;5197;48.152;8.590;2022-11-15T07:09:15;5.13;;;4.47;;
10303;SDS011;5197;48.152;8.590;2022-11-15T07:11:42;5.30;;;3.13;;
10303;SDS011;5197;48.152;8.590;2022-11-15T07:14:08;3.87;;;3.47;;
10303;SDS011;5197;48.152;8.590;2022-11-15T07:16:36;4.13;;;3.73;;
10303;SDS011;5197;48.152;8.590;2022-11-15T07:19:03;5.50;;;4.60;;
10303;SDS011;5197;48.152;8.590;2022-11-15T07:21:30;7.30;;;3.87;;
10303;SDS011;5197;48.152;8.590;2022-11-15T07:23:58;6.37;;;3.97;;
10303;SDS011;5197;48.152;8.590;2022-11-15T07:26:25;5.37;;;4.87;;
10303;SDS011;5197;48.152;8.590;2022-11-15T07:28:52;6.97;;;4.23;;
10303;SDS011;5197;48.152;8.590;2022-11-15T07:31:20;9.73;;;5.37;;
10303;SDS011;5197;48.152;8.590;2022-11-15T07:33:48;5.63;;;4.70;;
10303;SDS011;5197;48.152;8.590;2022-11-15T07:36:15;3.93;;;3.63;;
10303;SDS011;5197;48.152;8.590;2022-11-15T07:38:42;6.63;;;3.70;;
10303;SDS011;5197;48.152;8.590;2022-11-15T07:41:09;3.27;;;2.97;;
10303;SDS011;5197;48.152;8.590;2022-11-15T07:43:36;5.97;;;3.50;;
10303;SDS011;5197;48.152;8.590;2022-11-15T07:46:07;11.83;;;4.50;;
10303;SDS011;5197;48.152;8.590;2022-11-15T07:48:38;5.60;;;3.27;;
10303;SDS011;5197;48.152;8.590;2022-11-15T07:51:11;4.47;;;4.03;;
10303;SDS011;5197;48.152;8.590;2022-11-15T07:53:42;5.07;;;3.37;;
10303;SDS011;5197;48.152;8.590;2022-11-15T07:56:10;3.37;;;3.10;;
10303;SDS011;5197;48.152;8.590;2022-11-15T07:58:37;6.53;;;3.27;;
10303;SDS011;5197;48.152;8.590;2022-11-15T08:01:05;4.20;;;3.70;;
10303;SDS011;5197;48.152;8.590;2022-11-15T08:03:33;3.90;;;3.47;;
10303;SDS011;5197;48.152;8.590;2022-11-15T08:06:01;7.37;;;5.73;;
10303;SDS011;5197;48.152;8.590;2022-11-15T08:08:29;11.07;;;6.93;;
10303;SDS011;5197;48.152;8.590;2022-11-15T08:10:59;5.37;;;4.83;;
10303;SDS011;5197;48.152;8.590;2022-11-15T08:13:27;3.83;;;3.30;;
10303;SDS011;5197;48.152;8.590;2022-11-15T08:16:01;3.40;;;3.10;;
10303;SDS011;5197;48.152;8.590;2022-11-15T08:18:29;9.23;;;3.80;;
10303;SDS011;5197;48.152;8.590;2022-11-15T08:20:59;4.03;;;3.40;;
10303;SDS011;5197;48.152;8.590;2022-11-15T08:23:27;6.00;;;4.43;;
10303;SDS011;5197;48.152;8.590;2022-11-15T08:26:04;4.07;;;3.77;;
10303;SDS011;5197;48.152;8.590;2022-11-15T08:28:32;5.33;;;3.77;;
10303;SDS011;5197;48.152;8.590;2022-11-15T08:31:00;6.17;;;3.97;;
10303;SDS011;5197;48.152;8.590;2022-11-15T08:33:27;4.67;;;3.70;;
10303;SDS011;5197;48.152;8.590;2022-11-15T08:35:59;5.43;;;4.23;;
10303;SDS011;5197;48.152;8.590;2022-11-15T08:38:27;3.80;;;3.50;;
10303;SDS011;5197;48.152;8.590;2022-11-15T08:41:03;5.50;;;4.87;;
10303;SDS011;5197;48.152;8.590;2022-11-15T08:43:30;4.17;;;3.87;;
10303;SDS011;5197;48.152;8.590;2022-11-15T08:45:58;4.37;;;3.97;;
10303;SDS011;5197;48.152;8.590;2022-11-15T08:48:25;20.77;;;5.67;;
10303;SDS011;5197;48.152;8.590;2022-11-15T08:50:56;6.17;;;4.93;;
10303;SDS011;5197;48.152;8.590;2022-11-15T08:53:23;6.37;;;4.60;;
10303;SDS011;5197;48.152;8.590;2022-11-15T08:55:50;13.27;;;5.07;;
10303;SDS011;5197;48.152;8.590;2022-11-15T08:58:17;5.33;;;3.63;;
10303;SDS011;5197;48.152;8.590;2022-11-15T09:00:44;5.03;;;3.60;;
10303;SDS011;5197;48.152;8.590;2022-11-15T09:03:11;4.63;;;3.87;;
10303;SDS011;5197;48.152;8.590;2022-11-15T09:05:38;6.13;;;3.83;;
10303;SDS011;5197;48.152;8.590;2022-11-15T09:08:05;5.70;;;3.93;;
10303;SDS011;5197;48.152;8.590;2022-11-15T09:10:52;5.70;;;4.27;;
10303;SDS011;5197;48.152;8.590;2022-11-15T09:13:19;5.83;;;4.27;;
10303;SDS011;5197;48.152;8.590;2022-11-15T09:15:46;4.30;;;3.90;;
10303;SDS011;5197;48.152;8.590;2022-11-15T09:18:13;6.20;;;4.77;;
10303;SDS011;5197;48.152;8.590;2022-11-15T09:20:40;5.37;;;4.03;;
10303;SDS011;5197;48.152;8.590;2022-11-15T09:23:07;6.50;;;4.23;;
10303;SDS011;5197;48.152;8.590;2022-11-15T09:25:34;9.00;;;4.70;;
10303;SDS011;5197;48.152;8.590;2022-11-15T09:28:05;7.37;;;5.13;;
10303;SDS011;5197;48.152;8.590;2022-11-15T09:30:32;10.53;;;5.67;;
10303;SDS011;5197;48.152;8.590;2022-11-15T09:33:05;10.03;;;4.90;;
10303;SDS011;5197;48.152;8.590;2022-11-15T09:35:35;7.10;;;4.47;;
10303;SDS011;5197;48.152;8.590;2022-11-15T09:38:03;6.27;;;5.67;;
10303;SDS011;5197;48.152;8.590;2022-11-15T09:40:31;5.20;;;3.97;;
10303;SDS011;5197;48.152;8.590;2022-11-15T09:43:02;4.67;;;4.23;;
10303;SDS011;5197;48.152;8.590;2022-11-15T09:50:53;7.73;;;5.00;;
10303;SDS011;5197;48.152;8.590;2022-11-15T09:56:37;4.90;;;4.30;;
10303;SDS011;5197;48.152;8.590;2022-11-15T10:01:56;5.00;;;4.30;;
10303;SDS011;5197;48.152;8.590;2022-11-15T10:04:38;5.40;;;4.83;;
10303;SDS011;5197;48.152;8.590;2022-11-15T10:07:21;4.37;;;3.97;;
10303;SDS011;5197;48.152;8.590;2022-11-15T10:10:03;5.90;;;4.43;;
10303;SDS011;5197;48.152;8.590;2022-11-15T10:12:34;4.60;;;4.20;;
10303;SDS011;5197;48.152;8.590;2022-11-15T10:15:02;4.63;;;4.03;;
10303;SDS011;5197;48.152;8.590;2022-11-15T10:20:28;6.93;;;4.20;;
10303;SDS011;5197;48.152;8.590;2022-11-15T10:23:05;5.40;;;4.57;;
10303;SDS011;5197;48.152;8.590;2022-11-15T10:25:34;4.80;;;4.33;;
10303;SDS011;5197;48.152;8.590;2022-11-15T10:28:21;5.90;;;4.30;;
10303;SDS011;5197;48.152;8.590;2022-11-15T10:30:57;5.97;;;4.90;;
10303;SDS011;5197;48.152;8.590;2022-11-15T10:41:31;6.57;;;5.40;;
10303;SDS011;5197;48.152;8.590;2022-11-15T10:46:45;5.50;;;4.73;;
10303;SDS011;5197;48.152;8.590;2022-11-15T10:51:55;6.37;;;4.70;;
10303;SDS011;5197;48.152;8.590;2022-11-15T10:56:59;5.77;;;4.77;;
10303;SDS011;5197;48.152;8.590;2022-11-15T10:59:35;5.00;;;4.53;;
10303;SDS011;5197;48.152;8.590;2022-11-15T11:05:03;7.17;;;4.63;;
10303;SDS011;5197;48.152;8.590;2022-11-15T11:07:33;6.73;;;4.70;;
10303;SDS011;5197;48.152;8.590;2022-11-15T11:10:20;7.70;;;4.77;;
10303;SDS011;5197;48.152;8.590;2022-11-15T11:15:43;7.03;;;4.70;;
10303;SDS011;5197;48.152;8.590;2022-11-15T11:18:18;7.37;;;4.50;;
10303;SDS011;5197;48.152;8.590;2022-11-15T11:21:14;7.37;;;3.93;;
10303;SDS011;5197;48.152;8.590;2022-11-15T11:24:23;6.80;;;4.47;;
10303;SDS011;5197;48.152;8.590;2022-11-15T11:35:29;5.00;;;4.60;;
10303;SDS011;5197;48.152;8.590;2022-11-15T11:38:19;4.00;;;3.70;;
10303;SDS011;5197;48.152;8.590;2022-11-15T11:46:59;6.13;;;5.53;;
10303;SDS011;5197;48.152;8.590;2022-11-15T11:49:31;5.13;;;4.23;;
10303;SDS011;5197;48.152;8.590;2022-11-15T11:52:08;4.97;;;3.47;;
10303;SDS011;5197;48.152;8.590;2022-11-15T11:54:39;6.50;;;3.53;;
10303;SDS011;5197;48.152;8.590;2022-11-15T12:00:21;3.77;;;2.73;;
10303;SDS011;5197;48.152;8.590;2022-11-15T12:03:11;3.00;;;2.70;;
10303;SDS011;5197;48.152;8.590;2022-11-15T12:05:54;5.17;;;2.83;;
10303;SDS011;5197;48.152;8.590;2022-11-15T12:08:26;2.70;;;2.50;;
10303;SDS011;5197;48.152;8.590;2022-11-15T12:13:49;3.30;;;3.10;;
10303;SDS011;5197;48.152;8.590;2022-11-15T12:16:23;3.13;;;2.80;;
10303;SDS011;5197;48.152;8.590;2022-11-15T12:18:54;4.13;;;3.20;;
10303;SDS011;5197;48.152;8.590;2022-11-15T12:24:20;4.10;;;3.73;;
10303;SDS011;5197;48.152;8.590;2022-11-15T12:26:59;3.97;;;3.67;;
10303;SDS011;5197;48.152;8.590;2022-11-15T12:29:53;4.00;;;2.67;;
10303;SDS011;5197;48.152;8.590;2022-11-15T12:34:50;2.30;;;2.10;;
10303;SDS011;5197;48.152;8.590;2022-11-15T12:45:30;6.53;;;3.00;;
10303;SDS011;5197;48.152;8.590;2022-11-15T13:04:43;9.17;;;3.00;;
10303;SDS011;5197;48.152;8.590;2022-11-15T13:06:46;2.43;;;2.33;;
10303;SDS011;5197;48.152;8.590;2022-11-15T13:10:01;3.03;;;2.37;;
10303;SDS011;5197;48.152;8.590;2022-11-15T13:14:54;6.97;;;2.30;;
10303;SDS011;5197;48.152;8.590;2022-11-15T13:17:49;6.30;;;2.90;;
10303;SDS011;5197;48.152;8.590;2022-11-15T13:20:21;3.83;;;3.03;;
10303;SDS011;5197;48.152;8.590;2022-11-15T13:33:19;5.13;;;2.90;;
10303;SDS011;5197;48.152;8.590;2022-11-15T13:35:47;3.67;;;2.70;;
10303;SDS011;5197;48.152;8.590;2022-11-15T13:38:19;6.03;;;2.67;;
10303;SDS011;5197;48.152;8.590;2022-11-15T13:40:53;4.00;;;2.87;;
10303;SDS011;5197;48.152;8.590;2022-11-15T13:48:36;12.70;;;2.97;;
10303;SDS011;5197;48.152;8.590;2022-11-15T13:51:05;3.30;;;3.10;;
10303;SDS011;5197;48.152;8.590;2022-11-15T13:53:42;5.13;;;3.67;;
10303;SDS011;5197;48.152;8.590;2022-11-15T13:56:22;7.63;;;4.60;;
10303;SDS011;5197;48.152;8.590;2022-11-15T13:58:52;11.67;;;9.00;;
10303;SDS011;5197;48.152;8.590;2022-11-15T14:01:21;10.73;;;7.83;;
10303;SDS011;5197;48.152;8.590;2022-11-15T14:03:54;8.07;;;5.77;;
10303;SDS011;5197;48.152;8.590;2022-11-15T14:06:24;6.10;;;4.53;;
10303;SDS011;5197;48.152;8.590;2022-11-15T14:09:01;5.63;;;4.30;;
10303;SDS011;5197;48.152;8.590;2022-11-15T14:11:31;5.57;;;3.93;;
10303;SDS011;5197;48.152;8.590;2022-11-15T14:14:01;3.73;;;3.30;;
10303;SDS011;5197;48.152;8.590;2022-11-15T14:16:46;4.97;;;2.70;;
10303;SDS011;5197;48.152;8.590;2022-11-15T14:24:38;3.17;;;2.43;;
10303;SDS011;5197;48.152;8.590;2022-11-15T14:27:26;3.60;;;2.57;;
10303;SDS011;5197;48.152;8.590;2022-11-15T14:29:54;2.40;;;2.20;;
10303;SDS011;5197;48.152;8.590;2022-11-15T14:32:25;10.20;;;2.67;;
10303;SDS011;5197;48.152;8.590;2022-11-15T14:35:03;2.63;;;2.40;;
10303;SDS011;5197;48.152;8.590;2022-11-15T14:37:38;3.07;;;2.77;;
10303;SDS011;5197;48.152;8.590;2022-11-15T14:40:05;4.40;;;3.27;;
10303;SDS011;5197;48.152;8.590;2022-11-15T14:42:36;4.13;;;3.37;;
10303;SDS011;5197;48.152;8.590;2022-11-15T14:45:09;6.03;;;3.80;;
10303;SDS011;5197;48.152;8.590;2022-11-15T14:47:45;3.30;;;3.00;;
10303;SDS011;5197;48.152;8.590;2022-11-15T14:50:21;6.07;;;3.10;;
10303;SDS011;5197;48.152;8.590;2022-11-15T14:52:48;3.30;;;3.00;;
10303;SDS011;5197;48.152;8.590;2022-11-15T14:57:46;6.53;;;5.30;;
10303;SDS011;5197;48.152;8.590;2022-11-15T15:00:13;7.87;;;5.57;;
10303;SDS011;5197;48.152;8.590;2022-11-15T15:02:41;5.13;;;4.40;;
10303;SDS011;5197;48.152;8.590;2022-11-15T15:05:12;6.30;;;3.50;;
10303;SDS011;5197;48.152;8.590;2022-11-15T15:07:40;3.63;;;3.30;;
10303;SDS011;5197;48.152;8.590;2022-11-15T15:10:07;4.97;;;4.00;;
10303;SDS011;5197;48.152;8.590;2022-11-15T15:12:54;5.17;;;4.27;;
10303;SDS011;5197;48.152;8.590;2022-11-15T15:15:24;7.40;;;5.57;;
10303;SDS011;5197;48.152;8.590;2022-11-15T15:17:52;12.37;;;5.63;;
10303;SDS011;5197;48.152;8.590;2022-11-15T15:20:19;7.20;;;4.77;;
10303;SDS011;5197;48.152;8.590;2022-11-15T15:22:46;8.87;;;4.70;;
10303;SDS011;5197;48.152;8.590;2022-11-15T15:25:32;4.20;;;3.30;;
10303;SDS011;5197;48.152;8.590;2022-11-15T15:28:01;8.87;;;4.10;;
10303;SDS011;5197;48.152;8.590;2022-11-15T15:30:29;6.57;;;4.23;;
10303;SDS011;5197;48.152;8.590;2022-11-15T15:32:56;6.93;;;3.80;;
10303;SDS011;5197;48.152;8.590;2022-11-15T15:35:23;8.80;;;4.87;;
10303;SDS011;5197;48.152;8.590;2022-11-15T15:37:56;4.20;;;3.80;;
10303;SDS011;5197;48.152;8.590;2022-11-15T15:40:23;4.63;;;4.00;;
10303;SDS011;5197;48.152;8.590;2022-11-15T15:42:51;7.37;;;4.70;;
10303;SDS011;5197;48.152;8.590;2022-11-15T15:45:19;4.77;;;4.33;;
10303;SDS011;5197;48.152;8.590;2022-11-15T15:47:46;3.93;;;3.23;;
10303;SDS011;5197;48.152;8.590;2022-11-15T15:50:25;3.83;;;3.40;;
10303;SDS011;5197;48.152;8.590;2022-11-15T15:52:59;4.10;;;3.80;;
10303;SDS011;5197;48.152;8.590;2022-11-15T15:55:27;4.37;;;3.87;;
10303;SDS011;5197;48.152;8.590;2022-11-15T15:57:55;6.97;;;4.23;;
10303;SDS011;5197;48.152;8.590;2022-11-15T16:00:23;5.57;;;3.80;;
10303;SDS011;5197;48.152;8.590;2022-11-15T16:02:51;7.20;;;3.97;;
10303;SDS011;5197;48.152;8.590;2022-11-15T16:05:19;4.10;;;3.70;;
10303;SDS011;5197;48.152;8.590;2022-11-15T16:07:47;5.97;;;3.60;;
10303;SDS011;5197;48.152;8.590;2022-11-15T16:12:53;5.40;;;3.90;;
10303;SDS011;5197;48.152;8.590;2022-11-15T16:15:21;7.37;;;4.60;;
10303;SDS011;5197;48.152;8.590;2022-11-15T16:17:50;13.23;;;6.97;;
10303;SDS011;5197;48.152;8.590;2022-11-15T16:22:55;12.47;;;7.43;;
10303;SDS011;5197;48.152;8.590;2022-11-15T16:25:22;5.83;;;4.13;;
10303;SDS011;5197;48.152;8.590;2022-11-15T16:27:49;7.10;;;4.97;;
10303;SDS011;5197;48.152;8.590;2022-11-15T16:30:18;7.33;;;4.73;;
10303;SDS011;5197;48.152;8.590;2022-11-15T16:32:46;7.50;;;4.93;;
10303;SDS011;5197;48.152;8.590;2022-11-15T16:35:14;6.97;;;4.37;;
10303;SDS011;5197;48.152;8.590;2022-11-15T16:37:42;5.47;;;4.40;;
10303;SDS011;5197;48.152;8.590;2022-11-15T16:40:31;7.20;;;4.60;;
10303;SDS011;5197;48.152;8.590;2022-11-15T16:43:00;5.23;;;4.30;;
10303;SDS011;5197;48.152;8.590;2022-11-15T16:45:28;5.60;;;5.00;;
10303;SDS011;5197;48.152;8.590;2022-11-15T16:47:57;5.60;;;5.07;;
10303;SDS011;5197;48.152;8.590;2022-11-15T16:50:25;6.80;;;4.63;;
10303;SDS011;5197;48.152;8.590;2022-11-15T16:52:55;4.80;;;4.30;;
10303;SDS011;5197;48.152;8.590;2022-11-15T16:55:24;8.03;;;4.57;;
10303;SDS011;5197;48.152;8.590;2022-11-15T16:57:54;6.47;;;4.10;;
10303;SDS011;5197;48.152;8.590;2022-11-15T17:00:23;8.07;;;4.70;;
10303;SDS011;5197;48.152;8.590;2022-11-15T17:02:51;4.67;;;4.07;;
10303;SDS011;5197;48.152;8.590;2022-11-15T17:05:19;4.83;;;4.33;;
10303;SDS011;5197;48.152;8.590;2022-11-15T17:07:48;7.03;;;3.77;;
10303;SDS011;5197;48.152;8.590;2022-11-15T17:10:17;8.50;;;5.80;;
10303;SDS011;5197;48.152;8.590;2022-11-15T17:12:44;7.13;;;5.07;;
10303;SDS011;5197;48.152;8.590;2022-11-15T17:15:12;11.13;;;6.80;;
10303;SDS011;5197;48.152;8.590;2022-11-15T17:17:39;14.00;;;8.47;;
10303;SDS011;5197;48.152;8.590;2022-11-15T17:20:12;19.40;;;10.20;;
10303;SDS011;5197;48.152;8.590;2022-11-15T17:22:41;16.33;;;8.27;;
10303;SDS011;5197;48.152;8.590;2022-11-15T17:25:08;6.90;;;5.13;;
10303;SDS011;5197;48.152;8.590;2022-11-15T17:27:35;5.63;;;4.57;;
10303;SDS011;5197;48.152;8.590;2022-11-15T17:30:03;4.70;;;3.87;;
10303;SDS011;5197;48.152;8.590;2022-11-15T17:32:31;5.13;;;3.97;;
10303;SDS011;5197;48.152;8.590;2022-11-15T17:35:01;4.80;;;3.30;;
10303;SDS011;5197;48.152;8.590;2022-11-15T17:37:28;4.27;;;3.87;;
10303;SDS011;5197;48.152;8.590;2022-11-15T17:39:55;9.17;;;4.40;;
10303;SDS011;5197;48.152;8.590;2022-11-15T17:42:22;11.40;;;7.23;;
10303;SDS011;5197;48.152;8.590;2022-11-15T17:44:49;10.17;;;6.13;;
10303;SDS011;5197;48.152;8.590;2022-11-15T17:47:16;14.60;;;6.37;;
10303;SDS011;5197;48.152;8.590;2022-11-15T17:49:43;13.70;;;7.40;;
10303;SDS011;5197;48.152;8.590;2022-11-15T17:52:10;7.30;;;5.90;;
10303;SDS011;5197;48.152;8.590;2022-11-15T17:54:37;8.87;;;5.97;;